Time;durP1;ratioP1;P1;durP2;ratioP2;P2;SDS_P1;SDS_P2;PMS_P1;PMS_P2;Temp;Humidity;BMP_temperature;BMP_pressure;BME280_temperature;BME280_humidity;BME280_pressure;Samples;Min_cycle;Max_cycle;Signal;HPM_P1;HPM_P2
2023/06/16 00:00:26;;;;;;;96.22;87.45;;;;;;;18.68;100.00;100524.53;6132606;23;20368;-90
2023/06/16 00:13:00;;;;;;;111.47;101.68;;;;;;;19.00;100.00;100499.31;6125998;23;20538;-79
2023/06/16 00:16:14;;;;;;;91.57;83.07;;;;;;;19.08;100.00;100496.09;6126063;23;20367;-91
2023/06/16 00:18:43;;;;;;;85.90;77.60;;;;;;;19.31;100.00;100483.22;6128594;23;20038;-79
2023/06/16 00:21:13;;;;;;;85.57;77.38;;;;;;;18.94;100.00;100486.94;6126972;23;20097;-91
2023/06/16 00:23:40;;;;;;;95.05;86.10;;;;;;;18.67;100.00;100479.88;6132645;23;20028;-91
2023/06/16 00:26:09;;;;;;;100.65;91.68;;;;;;;18.81;100.00;100477.50;6132835;23;20018;-91
2023/06/16 00:42:33;;;;;;;91.15;82.65;;;;;;;18.96;100.00;100482.91;6133198;23;20024;-91
2023/06/16 00:48:22;;;;;;;91.72;83.53;;;;;;;19.27;100.00;100476.75;6132557;23;20025;-91
2023/06/16 00:51:25;;;;;;;79.03;71.45;;;;;;;19.07;100.00;100467.59;6131848;23;20018;-91
2023/06/16 00:57:14;;;;;;;82.22;74.57;;;;;;;19.33;100.00;100476.47;6133306;23;20040;-91
2023/06/16 01:00:13;;;;;;;81.60;73.82;;;;;;;19.40;100.00;100477.00;6134075;23;20032;-91
2023/06/16 01:06:25;;;;;;;109.90;100.90;;;;;;;18.86;100.00;100480.22;6132653;23;20025;-91
2023/06/16 01:16:00;;;;;;;98.25;90.15;;;;;;;19.20;100.00;100477.00;6133565;23;20096;-91
2023/06/16 01:21:55;;;;;;;76.93;69.63;;;;;;;19.17;100.00;100464.09;6132150;23;20024;-91
2023/06/16 01:24:33;;;;;;;97.90;89.88;;;;;;;19.19;100.00;100451.97;6131596;23;20022;-91
2023/06/16 01:30:24;;;;;;;78.30;70.80;;;;;;;18.81;100.00;100447.91;6132709;23;20098;-91
2023/06/16 01:32:59;;;;;;;84.75;77.00;;;;;;;18.31;100.00;100450.19;6130915;23;20024;-91
2023/06/16 01:38:50;;;;;;;95.50;86.88;;;;;;;18.83;100.00;100455.72;6131551;23;20020;-91
2023/06/16 01:48:27;;;;;;;84.13;76.13;;;;;;;18.92;100.00;100438.78;6133841;23;20021;-91
2023/06/16 01:50:54;;;;;;;84.35;76.57;;;;;;;19.00;100.00;100445.50;6124329;23;20045;-79
2023/06/16 01:53:21;;;;;;;91.60;83.43;;;;;;;19.01;100.00;100446.34;6125318;23;20022;-91
2023/06/16 01:56:35;;;;;;;103.50;94.85;;;;;;;18.99;100.00;100443.91;6133415;23;20060;-91
2023/06/16 02:02:27;;;;;;;95.78;87.47;;;;;;;19.02;100.00;100435.28;6132614;23;20136;-91
2023/06/16 02:04:57;;;;;;;97.47;89.00;;;;;;;18.95;100.00;100435.56;6129378;23;20021;-79
2023/06/16 02:07:35;;;;;;;95.00;86.28;;;;;;;18.81;100.00;100436.34;6122985;23;20022;-80
2023/06/16 02:10:04;;;;;;;103.90;94.70;;;;;;;18.41;100.00;100437.84;6122857;23;20017;-80
2023/06/16 02:12:32;;;;;;;105.60;96.50;;;;;;;18.39;100.00;100440.78;6123135;23;20105;-79
2023/06/16 02:14:59;;;;;;;97.72;88.93;;;;;;;18.56;100.00;100437.09;6123165;23;20463;-79
2023/06/16 02:17:26;;;;;;;93.18;84.43;;;;;;;18.98;100.00;100432.31;6123266;23;20026;-79
2023/06/16 02:19:53;;;;;;;94.80;85.90;;;;;;;18.92;100.00;100429.91;6122873;23;20089;-79
2023/06/16 02:22:33;;;;;;;107.65;98.95;;;;;;;18.93;100.00;100432.31;6123091;23;20018;-80
2023/06/16 02:25:01;;;;;;;95.00;87.32;;;;;;;18.89;100.00;100435.81;6123356;23;20048;-79
2023/06/16 02:27:28;;;;;;;82.97;75.32;;;;;;;18.80;100.00;100443.59;6122662;23;20022;-79
2023/06/16 02:29:55;;;;;;;84.30;76.72;;;;;;;18.59;100.00;100440.03;6123217;23;20432;-79
2023/06/16 02:32:21;;;;;;;88.50;80.28;;;;;;;18.41;100.00;100438.66;6123341;23;20472;-79
2023/06/16 02:34:48;;;;;;;99.60;90.70;;;;;;;18.65;100.00;100438.97;6122967;23;20372;-79
2023/06/16 02:37:15;;;;;;;101.63;92.82;;;;;;;19.03;100.00;100439.56;6125121;23;20021;-79
2023/06/16 02:39:44;;;;;;;93.28;84.75;;;;;;;18.67;100.00;100441.38;6124893;23;20371;-79
2023/06/16 02:42:11;;;;;;;111.05;101.80;;;;;;;18.34;100.00;100448.06;6125581;23;20105;-79
2023/06/16 02:44:38;;;;;;;102.20;93.53;;;;;;;18.82;100.00;100446.84;6125579;23;20531;-79
2023/06/16 02:47:06;;;;;;;95.20;87.15;;;;;;;19.14;100.00;100430.44;6125716;23;20434;-79
2023/06/16 02:49:32;;;;;;;99.60;91.20;;;;;;;19.13;100.00;100436.09;6124669;23;20033;-79
2023/06/16 02:51:59;;;;;;;87.03;79.43;;;;;;;19.02;100.00;100434.47;6124663;23;20464;-79
2023/06/16 02:54:27;;;;;;;82.88;75.45;;;;;;;18.92;100.00;100432.59;6124054;23;20018;-79
2023/06/16 02:56:55;;;;;;;85.88;78.18;;;;;;;18.56;100.00;100437.09;6124995;23;20424;-79
2023/06/16 02:59:26;;;;;;;94.00;85.72;;;;;;;18.30;100.00;100440.47;6124667;23;20026;-79
2023/06/16 03:01:53;;;;;;;95.93;87.43;;;;;;;18.72;100.00;100430.66;6124542;23;20029;-78
2023/06/16 03:04:20;;;;;;;99.78;91.18;;;;;;;19.05;100.00;100434.75;6124494;23;20026;-79
2023/06/16 03:06:47;;;;;;;87.55;79.85;;;;;;;19.15;100.00;100436.63;6124200;23;20022;-79
2023/06/16 03:09:14;;;;;;;85.53;78.35;;;;;;;19.26;100.00;100424.78;6124664;23;20419;-79
2023/06/16 03:11:42;;;;;;;83.93;76.82;;;;;;;19.25;100.00;100433.94;6123959;23;20472;-79
2023/06/16 03:14:12;;;;;;;86.78;79.43;;;;;;;19.37;100.00;100421.00;6124245;23;20044;-79
2023/06/16 03:23:23;;;;;;;92.35;84.40;;;;;;;18.91;100.00;100426.41;6152628;23;20008;-91
2023/06/16 03:25:49;;;;;;;97.03;88.72;;;;;;;18.87;100.00;100430.69;6139270;23;20029;-79
2023/06/16 03:28:16;;;;;;;103.10;94.43;;;;;;;18.75;100.00;100436.31;6124696;23;20022;-79
2023/06/16 03:30:45;;;;;;;110.20;101.00;;;;;;;18.79;100.00;100447.38;6124072;23;20025;-80
2023/06/16 03:33:12;;;;;;;96.45;88.45;;;;;;;18.91;100.00;100437.19;6124540;23;20025;-80
2023/06/16 03:35:41;;;;;;;93.88;86.28;;;;;;;19.12;100.00;100427.22;6124099;23;20429;-80
2023/06/16 03:38:08;;;;;;;96.13;88.13;;;;;;;19.24;100.00;100429.63;6124257;23;20376;-79
2023/06/16 03:40:34;;;;;;;98.60;90.70;;;;;;;19.27;100.00;100423.69;6124149;23;20049;-79
2023/06/16 03:43:02;;;;;;;91.57;84.00;;;;;;;19.10;100.00;100433.94;6124108;23;20029;-79
2023/06/16 03:45:29;;;;;;;93.03;85.32;;;;;;;18.90;100.00;100429.34;6124925;23;20349;-79
2023/06/16 03:47:58;;;;;;;88.57;81.18;;;;;;;19.23;100.00;100419.94;6123541;23;20018;-79
2023/06/16 03:50:25;;;;;;;78.60;71.97;;;;;;;19.11;100.00;100416.72;6124080;23;20416;-79
2023/06/16 03:52:52;;;;;;;84.47;76.82;;;;;;;19.13;100.00;100406.50;6124137;23;20478;-79
2023/06/16 03:55:20;;;;;;;97.28;89.30;;;;;;;19.34;100.00;100418.06;6121158;23;20157;-79
2023/06/16 03:57:47;;;;;;;92.55;84.75;;;;;;;18.81;100.00;100426.38;6124368;23;20054;-79
2023/06/16 04:00:14;;;;;;;82.53;75.45;;;;;;;18.82;100.00;100430.72;6123686;23;20375;-80
2023/06/16 04:02:42;;;;;;;99.03;90.80;;;;;;;19.25;100.00;100425.88;6124328;23;20028;-79
2023/06/16 04:05:10;;;;;;;92.03;84.63;;;;;;;19.36;100.00;100421.25;6124468;23;20472;-79
2023/06/16 04:07:37;;;;;;;91.60;84.30;;;;;;;19.63;100.00;100427.13;6124004;23;20100;-79
2023/06/16 04:10:05;;;;;;;88.20;81.03;;;;;;;19.58;100.00;100429.88;6123420;23;20022;-79
2023/06/16 04:12:32;;;;;;;90.38;83.18;;;;;;;19.80;100.00;100424.16;6123437;23;20021;-80
2023/06/16 04:14:59;;;;;;;86.60;79.38;;;;;;;19.93;100.00;100433.56;6123828;23;20334;-79
2023/06/16 04:17:28;;;;;;;79.78;72.85;;;;;;;19.86;100.00;100424.97;6123054;23;20085;-80
2023/06/16 04:19:57;;;;;;;85.88;78.70;;;;;;;19.71;100.00;100422.31;6123551;23;20030;-80
2023/06/16 04:22:28;;;;;;;80.72;73.68;;;;;;;19.83;100.00;100426.31;6123833;23;20021;-79
2023/06/16 04:25:17;;;;;;;78.80;72.40;;;;;;;19.94;100.00;100424.41;6124155;23;20022;-79
2023/06/16 04:27:58;;;;;;;80.78;74.18;;;;;;;19.99;100.00;100424.38;6094978;23;20072;-79
2023/06/16 04:30:30;;;;;;;80.70;74.00;;;;;;;20.09;100.00;100428.91;6094359;23;20023;-80
2023/06/16 04:32:58;;;;;;;90.55;83.60;;;;;;;20.11;100.00;100430.25;6094991;23;20029;-78
2023/06/16 04:35:27;;;;;;;87.80;81.07;;;;;;;20.31;100.00;100429.34;6093955;23;20469;-79
2023/06/16 04:37:56;;;;;;;80.18;73.45;;;;;;;20.26;100.00;100423.19;6094005;23;20025;-79
2023/06/16 04:40:23;;;;;;;80.22;73.57;;;;;;;20.54;100.00;100424.41;6093531;23;20018;-79
2023/06/16 04:42:50;;;;;;;83.07;76.28;;;;;;;20.62;100.00;100423.81;6094194;23;20019;-79
2023/06/16 04:55:26;;;;;;;71.47;65.28;;;;;;;20.24;100.00;100442.34;6097206;23;20098;-79
2023/06/16 04:57:52;;;;;;;69.32;63.47;;;;;;;20.68;100.00;100441.59;6096122;23;20070;-89
2023/06/16 05:00:20;;;;;;;67.68;61.78;;;;;;;20.71;100.00;100435.63;6092949;23;20026;-79
2023/06/16 05:02:46;;;;;;;67.25;61.35;;;;;;;20.94;100.00;100438.72;6099201;23;20101;-79
2023/06/16 05:05:13;;;;;;;64.65;59.28;;;;;;;21.04;100.00;100428.63;6103885;23;20033;-79
2023/06/16 05:07:40;;;;;;;60.53;55.30;;;;;;;21.09;100.00;100435.91;6098817;23;20026;-91
2023/06/16 05:10:09;;;;;;;99.75;89.65;;;;;;;20.53;100.00;100439.78;6097725;23;20101;-79
2023/06/16 05:12:39;;;;;;;77.45;69.55;;;;;;;20.81;100.00;100456.34;6093345;23;20556;-78
2023/06/16 05:15:07;;;;;;;67.25;60.30;;;;;;;20.89;100.00;100460.34;6105889;23;20026;-80
2023/06/16 05:17:34;;;;;;;90.03;82.25;;;;;;;20.71;100.00;100457.22;6093376;23;20337;-78
2023/06/16 05:20:31;;;;;;;71.22;64.97;;;;;;;20.98;100.00;100462.16;6113866;23;20025;-89
2023/06/16 05:22:58;;;;;;;59.10;54.35;;;;;;;21.19;100.00;100456.59;6093708;23;20617;-78
2023/06/16 05:25:28;;;;;;;58.53;53.72;;;;;;;21.11;100.00;100455.31;6095697;23;20022;-78
2023/06/16 05:27:57;;;;;;;57.45;52.63;;;;;;;21.20;100.00;100455.50;6099041;23;20187;-89
2023/06/16 05:30:24;;;;;;;56.20;51.72;;;;;;;21.48;100.00;100451.22;6097459;23;20022;-78
2023/06/16 05:32:51;;;;;;;58.95;54.50;;;;;;;21.58;100.00;100456.53;6093605;23;20464;-78
2023/06/16 05:35:18;;;;;;;52.03;47.60;;;;;;;21.57;100.00;100446.81;6093988;23;20026;-78
2023/06/16 05:37:45;;;;;;;42.85;39.78;;;;;;;21.82;100.00;100461.19;6093933;23;20016;-77
2023/06/16 05:40:20;;;;;;;40.42;37.22;;;;;;;21.67;100.00;100462.13;6099603;23;20026;-89
2023/06/16 05:42:47;;;;;;;44.55;41.15;;;;;;;21.93;100.00;100460.75;6096596;23;20072;-89
2023/06/16 05:45:25;;;;;;;35.00;32.38;;;;;;;22.05;100.00;100460.34;6097051;23;20046;-89
2023/06/16 05:48:06;;;;;;;32.80;30.40;;;;;;;22.13;100.00;100464.31;6096937;23;20098;-89
2023/06/16 05:50:33;;;;;;;30.33;28.00;;;;;;;22.09;100.00;100461.41;6097389;23;20379;-89
2023/06/16 05:53:01;;;;;;;27.27;25.00;;;;;;;22.15;100.00;100460.25;6099146;23;20045;-89
2023/06/16 05:55:56;;;;;;;26.50;24.48;;;;;;;22.39;100.00;100456.69;6097808;23;20018;-90
2023/06/16 05:58:27;;;;;;;26.83;24.92;;;;;;;22.38;100.00;100447.78;6097876;23;20057;-87
2023/06/16 06:00:58;;;;;;;26.83;25.08;;;;;;;22.39;100.00;100446.72;6097239;23;20018;-78
2023/06/16 06:03:26;;;;;;;26.58;24.75;;;;;;;22.61;100.00;100451.53;6096667;23;20372;-79
2023/06/16 06:05:53;;;;;;;21.65;20.15;;;;;;;22.75;100.00;100448.09;6094431;23;20022;-89
2023/06/16 06:08:58;;;;;;;26.30;24.50;;;;;;;23.25;100.00;100449.22;6096801;23;20413;-89
2023/06/16 06:11:57;;;;;;;25.67;23.88;;;;;;;23.49;100.00;100443.66;6096765;23;20428;-91
2023/06/16 06:14:24;;;;;;;24.60;22.83;;;;;;;22.98;100.00;100446.41;6036346;23;20063;-91
2023/06/16 06:16:53;;;;;;;21.90;20.40;;;;;;;23.30;100.00;100438.31;6082157;23;20019;-89
2023/06/16 06:19:22;;;;;;;22.95;21.17;;;;;;;23.24;100.00;100436.78;6096416;23;20014;-90
2023/06/16 06:21:49;;;;;;;22.52;20.75;;;;;;;23.38;100.00;100427.88;6095317;23;20054;-78
2023/06/16 06:24:16;;;;;;;23.13;21.42;;;;;;;23.46;100.00;100421.78;6095209;23;20465;-88
2023/06/16 06:26:43;;;;;;;23.05;21.23;;;;;;;23.65;100.00;100425.19;6110881;23;20026;-77
2023/06/16 06:29:10;;;;;;;24.10;22.42;;;;;;;23.76;100.00;100425.84;6123533;23;20025;-78
2023/06/16 06:31:37;;;;;;;23.80;22.15;;;;;;;23.85;100.00;100434.06;6125292;23;20047;-78
2023/06/16 06:34:07;;;;;;;23.70;21.80;;;;;;;23.97;100.00;100428.94;6095232;23;20026;-78
2023/06/16 06:36:41;;;;;;;22.27;20.67;;;;;;;24.10;100.00;100430.84;6095263;23;20041;-77
2023/06/16 06:39:29;;;;;;;24.05;21.80;;;;;;;24.07;100.00;100434.16;6097642;23;20025;-87
2023/06/16 06:42:41;;;;;;;23.55;21.77;;;;;;;24.06;100.00;100431.75;6100390;23;20026;-90
2023/06/16 06:48:30;;;;;;;20.40;18.80;;;;;;;24.22;100.00;100441.97;6100446;23;20519;-90
2023/06/16 06:54:20;;;;;;;21.50;20.02;;;;;;;24.48;100.00;100455.03;6102573;23;20021;-92
2023/06/16 06:57:19;;;;;;;21.60;20.13;;;;;;;24.57;100.00;100445.06;6102525;23;20510;-91
2023/06/16 07:03:54;;;;;;;19.10;17.70;;;;;;;24.96;100.00;100443.56;6104495;23;20020;-91
2023/06/16 07:06:47;;;;;;;20.23;18.88;;;;;;;24.85;100.00;100451.19;6096882;23;20014;-79
2023/06/16 07:09:14;;;;;;;;;;;;;;;24.90;100.00;100442.94;6099641;23;20022;-87
2023/06/16 07:11:42;;;;;;;22.27;20.73;;;;;;;24.81;100.00;100441.22;6095959;23;19918;-90
2023/06/16 07:14:10;;;;;;;21.13;19.42;;;;;;;24.62;100.00;100431.34;6095435;23;20045;-89
2023/06/16 07:16:37;;;;;;;20.70;19.30;;;;;;;24.82;100.00;100429.28;6096393;23;20105;-79
2023/06/16 07:19:04;;;;;;;22.75;21.05;;;;;;;24.66;100.00;100426.09;6098583;23;20023;-77
2023/06/16 07:21:48;;;;;;;22.73;20.80;;;;;;;24.78;100.00;100422.84;6096404;23;20022;-86
2023/06/16 07:24:26;;;;;;;23.20;21.55;;;;;;;24.83;100.00;100420.81;6098101;23;20015;-84
2023/06/16 07:26:59;;;;;;;23.95;22.35;;;;;;;25.06;100.00;100427.06;6100729;23;20023;-88
2023/06/16 07:29:26;;;;;;;24.05;22.42;;;;;;;25.13;100.00;100421.19;6100292;23;20030;-84
2023/06/16 07:32:06;;;;;;;24.45;22.70;;;;;;;25.33;100.00;100420.69;6100678;23;20019;-79
2023/06/16 07:34:33;;;;;;;21.33;19.73;;;;;;;25.40;100.00;100420.22;6095278;23;20022;-78
2023/06/16 07:37:08;;;;;;;23.17;21.67;;;;;;;25.42;100.00;100419.91;6095365;23;20023;-78
2023/06/16 07:39:35;;;;;;;22.63;20.58;;;;;;;25.36;100.00;100427.41;6095979;23;20018;-79
2023/06/16 07:42:03;;;;;;;21.27;19.58;;;;;;;25.62;100.00;100418.56;6095300;23;20014;-79
2023/06/16 07:44:43;;;;;;;25.58;23.58;;;;;;;25.97;100.00;100424.97;6095218;23;20019;-77
2023/06/16 07:47:12;;;;;;;22.77;20.58;;;;;;;26.00;100.00;100421.59;6095621;23;20024;-77
2023/06/16 07:53:51;;;;;;;21.50;20.02;;;;;;;26.12;100.00;100413.63;6102104;23;20017;-90
2023/06/16 07:56:40;;;;;;;20.33;18.92;;;;;;;26.65;100.00;100417.19;6098440;23;20425;-90
2023/06/16 08:02:33;;;;;;;20.58;19.23;;;;;;;26.71;100.00;100410.47;6100709;23;20472;-90
2023/06/16 08:05:35;;;;;;;18.52;17.33;;;;;;;26.91;100.00;100406.28;6103818;23;20019;-90
2023/06/16 08:08:09;;;;;;;19.10;17.70;;;;;;;26.77;100.00;100406.47;6102830;23;20026;-87
2023/06/16 08:10:49;;;;;;;21.45;20.10;;;;;;;26.69;100.00;100410.81;6099182;23;20029;-90
2023/06/16 08:13:26;;;;;;;21.77;20.15;;;;;;;26.69;100.00;100404.56;6098854;23;20026;-89
2023/06/16 08:16:07;;;;;;;21.98;20.48;;;;;;;26.53;100.00;100408.88;6099749;23;20029;-88
2023/06/16 08:18:36;;;;;;;19.55;18.25;;;;;;;26.17;100.00;100402.59;6100166;23;20023;-89
2023/06/16 08:21:04;;;;;;;19.20;17.92;;;;;;;26.54;100.00;100407.75;6099113;23;20094;-90
2023/06/16 08:23:50;;;;;;;22.35;20.75;;;;;;;26.45;100.00;100415.91;6099048;23;20070;-89
2023/06/16 08:26:18;;;;;;;23.73;21.92;;;;;;;26.62;100.00;100412.41;6099102;23;20428;-90
2023/06/16 08:28:59;;;;;;;21.33;19.90;;;;;;;26.79;100.00;100419.78;6099574;23;20046;-90
2023/06/16 08:32:16;;;;;;;20.73;19.47;;;;;;;26.82;100.00;100414.47;6101996;23;20018;-90
2023/06/16 08:38:09;;;;;;;22.17;20.88;;;;;;;27.00;98.75;100409.00;6100381;23;20021;-89
2023/06/16 08:44:02;;;;;;;25.60;23.67;;;;;;;27.14;100.00;100421.34;6102183;23;20523;-90
2023/06/16 08:46:31;;;;;;;22.42;20.90;;;;;;;27.05;100.00;100404.19;6100563;23;20022;-89
2023/06/16 08:49:20;;;;;;;22.15;20.63;;;;;;;27.18;100.00;100399.69;6101508;23;20028;-90
2023/06/16 08:52:08;;;;;;;20.85;19.35;;;;;;;27.46;100.00;100394.63;6098456;23;20026;-89
2023/06/16 08:54:47;;;;;;;23.33;21.88;;;;;;;27.38;100.00;100390.81;6099175;23;20026;-79
2023/06/16 08:57:20;;;;;;;23.13;21.42;;;;;;;27.46;100.00;100391.09;6096493;23;20037;-78
2023/06/16 08:59:50;;;;;;;24.13;22.27;;;;;;;27.53;100.00;100388.66;6098195;23;20018;-89
2023/06/16 09:05:41;;;;;;;22.30;20.60;;;;;;;27.88;100.00;100380.31;6104437;23;20021;-88
2023/06/16 09:14:58;;;;;;;21.63;19.92;;;;;;;27.36;91.12;100381.34;6104371;23;20026;-90
2023/06/16 09:17:29;;;;;;;22.15;20.55;;;;;;;27.45;95.77;100387.56;6099749;23;20028;-90
2023/06/16 09:19:57;;;;;;;21.65;20.02;;;;;;;27.28;100.00;100377.53;6102390;23;20070;-90
2023/06/16 09:25:52;;;;;;;22.40;20.80;;;;;;;28.02;87.61;100372.66;6101402;23;20030;-90
2023/06/16 09:28:52;;;;;;;23.17;21.38;;;;;;;28.27;63.85;100374.41;6099845;23;20029;-90
2023/06/16 09:31:47;;;;;;;20.70;19.27;;;;;;;28.06;59.65;100374.41;6098308;23;20025;-88
2023/06/16 09:34:45;;;;;;;21.48;19.98;;;;;;;28.11;65.83;100375.34;6098800;23;20049;-89
2023/06/16 09:37:20;;;;;;;21.00;19.55;;;;;;;28.31;67.86;100375.34;6099149;23;20019;-90
2023/06/16 09:40:16;;;;;;;22.23;20.52;;;;;;;28.25;69.08;100368.47;6100026;23;20027;-87
2023/06/16 09:43:01;;;;;;;22.40;20.90;;;;;;;28.30;67.27;100362.84;6098715;23;20093;-87
2023/06/16 09:45:45;;;;;;;22.25;20.65;;;;;;;28.00;87.48;100364.81;6098846;23;20098;-89
2023/06/16 09:48:13;;;;;;;20.67;19.33;;;;;;;28.09;100.00;100360.09;6100170;23;20022;-90
2023/06/16 09:50:41;;;;;;;21.40;19.80;;;;;;;28.42;100.00;100364.06;6100296;23;20380;-89
2023/06/16 09:53:34;;;;;;;23.60;21.80;;;;;;;28.06;100.00;100371.69;6098868;23;20030;-90
2023/06/16 09:56:02;;;;;;;23.13;21.35;;;;;;;27.97;100.00;100360.03;6095800;23;20479;-78
2023/06/16 09:59:15;;;;;;;25.60;23.65;;;;;;;28.03;100.00;100353.25;6101771;23;20046;-89
2023/06/16 10:01:47;;;;;;;;;;;;;;;28.43;100.00;100357.47;6099263;23;20022;-79
2023/06/16 10:04:35;;;;;;;26.02;24.42;;;;;;;28.29;100.00;100352.22;6097426;23;19924;-79
2023/06/16 10:07:14;;;;;;;21.40;19.77;;;;;;;28.37;100.00;100356.81;6097437;23;20029;-79
2023/06/16 10:09:46;;;;;;;19.58;18.02;;;;;;;28.30;100.00;100354.63;6100789;23;20018;-78
2023/06/16 10:12:14;;;;;;;20.65;19.30;;;;;;;28.49;100.00;100358.84;6094561;23;20034;-78
2023/06/16 10:14:45;;;;;;;24.75;22.35;;;;;;;27.96;100.00;100350.25;6094794;23;20097;-78
2023/06/16 10:17:19;;;;;;;22.52;20.98;;;;;;;28.00;100.00;100336.75;6094371;23;20022;-79
2023/06/16 10:19:51;;;;;;;22.92;21.35;;;;;;;28.23;100.00;100327.09;6093950;23;20082;-79
2023/06/16 10:22:18;;;;;;;21.75;20.10;;;;;;;28.14;100.00;100333.72;6094489;23;20049;-79
2023/06/16 10:24:47;;;;;;;21.30;19.30;;;;;;;28.79;100.00;100329.47;6094278;23;20018;-79
2023/06/16 10:27:16;;;;;;;22.30;20.52;;;;;;;28.61;100.00;100328.84;6093648;23;20061;-78
2023/06/16 10:29:53;;;;;;;22.52;21.00;;;;;;;28.88;100.00;100326.63;6094062;23;20033;-79
2023/06/16 10:32:20;;;;;;;21.02;19.30;;;;;;;29.52;81.63;100333.44;6094138;23;20033;-78
2023/06/16 10:34:56;;;;;;;23.48;21.02;;;;;;;29.40;71.86;100323.28;6093316;23;20484;-78
2023/06/16 10:37:24;;;;;;;26.45;24.15;;;;;;;29.86;63.10;100323.94;6093907;23;20025;-88
2023/06/16 10:40:28;;;;;;;23.67;21.55;;;;;;;29.77;70.67;100326.81;6099895;23;20022;-88
2023/06/16 10:43:30;;;;;;;22.02;20.52;;;;;;;29.93;71.29;100321.44;6098790;23;20054;-88
2023/06/16 10:46:20;;;;;;;21.70;19.90;;;;;;;29.92;62.97;100310.81;6098425;23;20018;-88
2023/06/16 10:49:18;;;;;;;21.08;19.27;;;;;;;29.72;70.59;100329.00;6098634;23;20018;-88
2023/06/16 10:51:49;;;;;;;22.38;20.88;;;;;;;30.11;69.55;100311.00;6079848;23;20082;-88
2023/06/16 10:54:35;;;;;;;21.75;19.92;;;;;;;29.55;77.61;100319.88;6097761;23;20026;-88
2023/06/16 10:57:04;;;;;;;24.23;22.38;;;;;;;29.75;73.40;100309.16;6100261;23;20453;-89
2023/06/16 10:59:54;;;;;;;22.73;20.98;;;;;;;30.24;62.40;100312.56;6100680;23;20022;-88
2023/06/16 11:02:50;;;;;;;21.75;19.95;;;;;;;30.28;75.03;100316.19;6100765;23;20019;-89
2023/06/16 11:05:22;;;;;;;24.45;22.17;;;;;;;30.41;75.50;100325.19;6099678;23;20018;-88
2023/06/16 11:08:14;;;;;;;28.33;25.42;;;;;;;30.46;75.37;100316.69;6096087;23;20085;-78
2023/06/16 11:10:48;;;;;;;;;;;;;;;29.76;71.76;100310.75;6100597;23;20025;-88
2023/06/16 11:13:35;;;;;;;47.00;43.30;;;;;;;30.37;65.68;100316.06;6099253;23;20013;-88
2023/06/16 11:16:04;;;;;;;53.60;49.22;;;;;;;30.16;67.69;100304.47;6099997;23;20085;-89
2023/06/16 11:18:35;;;;;;;52.90;48.60;;;;;;;29.93;77.60;100317.91;6100368;23;20049;-88
2023/06/16 11:21:03;;;;;;;48.60;44.75;;;;;;;30.03;68.74;100311.94;6099907;23;20028;-88
2023/06/16 11:23:50;;;;;;;49.22;45.08;;;;;;;30.64;71.49;100306.22;6102160;23;20026;-90
2023/06/16 11:26:20;;;;;;;57.13;52.25;;;;;;;30.26;76.08;100299.34;6101145;23;20184;-89
2023/06/16 11:28:53;;;;;;;59.75;54.75;;;;;;;30.32;83.80;100314.38;6101456;23;20421;-88
2023/06/16 11:31:27;;;;;;;57.03;51.97;;;;;;;30.15;85.33;100300.94;6101168;23;20095;-89
2023/06/16 11:34:10;;;;;;;48.70;44.45;;;;;;;30.35;86.04;100293.72;6100164;23;20027;-89
2023/06/16 11:36:50;;;;;;;50.15;45.33;;;;;;;30.38;99.06;100284.81;6102468;23;20030;-87
2023/06/16 11:39:48;;;;;;;49.25;45.10;;;;;;;29.79;100.00;100279.97;6100239;23;20023;-89
2023/06/16 11:42:15;;;;;;;59.55;54.45;;;;;;;30.75;93.60;100288.13;6098214;23;20479;-87
2023/06/16 11:45:11;;;;;;;60.15;54.97;;;;;;;30.49;94.47;100276.84;6101433;23;20023;-90
2023/06/16 11:47:39;;;;;;;51.35;46.97;;;;;;;30.43;97.16;100268.09;6098788;23;20036;-88
2023/06/16 11:50:24;;;;;;;45.97;41.70;;;;;;;30.42;94.04;100268.44;6100725;23;20094;-89
2023/06/16 11:52:52;;;;;;;43.28;40.10;;;;;;;30.34;85.57;100261.97;6098994;23;20038;-89
2023/06/16 11:55:21;;;;;;;60.92;55.55;;;;;;;30.55;83.66;100267.22;6099464;23;20050;-87
2023/06/16 11:58:02;;;;;;;62.47;57.15;;;;;;;30.57;85.67;100273.16;6100917;23;20057;-89
2023/06/16 12:00:30;;;;;;;55.13;50.47;;;;;;;30.41;83.22;100261.34;6099117;23;20019;-88
2023/06/16 12:06:19;;;;;;;57.47;53.08;;;;;;;29.91;92.04;100255.28;6101589;23;20025;-88
2023/06/16 12:08:49;;;;;;;58.58;53.83;;;;;;;29.82;96.92;100252.69;6099700;23;20045;-88
2023/06/16 12:11:23;;;;;;;58.03;53.30;;;;;;;30.52;89.87;100249.53;6099504;23;20022;-90
2023/06/16 12:14:17;;;;;;;59.60;55.08;;;;;;;30.18;95.64;100250.16;6099667;23;20480;-89
2023/06/16 12:16:44;;;;;;;56.22;51.70;;;;;;;30.65;100.00;100242.03;6098354;23;20106;-89
2023/06/16 12:19:12;;;;;;;60.90;55.63;;;;;;;30.62;100.00;100240.00;6099921;23;20026;-89
2023/06/16 12:25:47;;;;;;;61.13;55.67;;;;;;;30.80;100.00;100237.72;6102568;23;20364;-89
2023/06/16 12:28:20;;;;;;;57.67;52.70;;;;;;;30.37;100.00;100228.41;6101572;23;20033;-89
2023/06/16 12:31:03;;;;;;;57.63;53.13;;;;;;;31.21;100.00;100219.91;6102500;23;20376;-86
2023/06/16 12:33:45;;;;;;;57.00;51.50;;;;;;;31.07;100.00;100229.75;6099076;23;20508;-87
2023/06/16 12:36:13;;;;;;;59.83;54.47;;;;;;;30.21;100.00;100233.06;6100433;23;20105;-88
2023/06/16 12:38:47;;;;;;;64.90;59.17;;;;;;;30.65;100.00;100222.84;6099849;23;20366;-89
2023/06/16 12:41:22;;;;;;;65.53;59.67;;;;;;;30.50;100.00;100226.38;6099556;23;20022;-90
2023/06/16 12:43:52;;;;;;;66.95;61.08;;;;;;;29.92;100.00;100225.97;6094294;23;20018;-78
2023/06/16 12:46:20;;;;;;;64.45;58.63;;;;;;;29.75;100.00;100221.59;6093875;23;20019;-78
2023/06/16 12:48:47;;;;;;;56.78;51.70;;;;;;;30.13;100.00;100218.34;6094079;23;20018;-77
2023/06/16 12:51:17;;;;;;;61.10;56.00;;;;;;;30.09;100.00;100220.19;6094284;23;20038;-78
2023/06/16 12:53:46;;;;;;;55.70;51.00;;;;;;;30.28;100.00;100227.78;6094392;23;20097;-78
2023/06/16 12:56:22;;;;;;;51.92;47.90;;;;;;;30.17;100.00;100226.66;6094206;23;20018;-78
2023/06/16 12:58:56;;;;;;;52.60;48.25;;;;;;;30.09;100.00;100210.03;6094408;23;20500;-77
2023/06/16 13:01:23;;;;;;;55.60;50.92;;;;;;;30.58;100.00;100207.03;6093546;23;20033;-78
2023/06/16 13:03:56;;;;;;;58.03;51.72;;;;;;;29.98;100.00;100198.00;6094293;23;20019;-78
2023/06/16 13:06:23;;;;;;;53.45;48.78;;;;;;;29.83;100.00;100201.47;6094345;23;20019;-78
2023/06/16 13:08:50;;;;;;;58.15;53.38;;;;;;;30.35;98.84;100195.09;6094563;23;20421;-78
2023/06/16 13:11:17;;;;;;;54.30;49.80;;;;;;;30.36;100.00;100193.94;6094212;23;20431;-77
2023/06/16 13:13:44;;;;;;;50.33;46.30;;;;;;;30.49;96.55;100175.47;6094475;23;20077;-78
2023/06/16 13:16:12;;;;;;;49.58;45.80;;;;;;;30.33;96.14;100189.19;6094126;23;20358;-78
2023/06/16 13:18:39;;;;;;;51.22;47.35;;;;;;;30.40;99.72;100189.34;6094242;23;20029;-78
2023/06/16 13:21:06;;;;;;;52.67;48.38;;;;;;;29.86;100.00;100176.94;6094286;23;20019;-78
2023/06/16 13:23:33;;;;;;;51.55;47.25;;;;;;;30.27;100.00;100177.69;6094114;23;20326;-77
2023/06/16 13:26:00;;;;;;;52.72;48.72;;;;;;;30.40;100.00;100175.66;6093865;23;20030;-77
2023/06/16 13:28:29;;;;;;;51.85;47.35;;;;;;;30.32;100.00;100171.94;6094445;23;20022;-78
2023/06/16 13:30:56;;;;;;;54.25;49.45;;;;;;;30.11;97.70;100169.41;6093944;23;20023;-78
2023/06/16 13:33:25;;;;;;;31.27;29.08;;;;;;;29.95;100.00;100165.06;6094401;23;20028;-78
2023/06/16 13:35:52;;;;;;;33.65;30.83;;;;;;;29.80;100.00;100161.13;6094213;23;20361;-77
2023/06/16 13:38:20;;;;;;;31.00;28.20;;;;;;;30.15;100.00;100165.97;6094144;23;20015;-78